Lambourn, United Kingdom
Current Conditions -  °F | °C
As of 5:58 PM on Friday 21 Nov 2014 (Local Time) from EGVA Reporting Station
Light Rain Light Rain  
Wind Chill: 41°   Ceiling: 700
Heat Index: 45°   Visibility: 4mi
Dew Point: 45°   Wind: 9mph
Humidity: 98%   Direction: 100°E
Pressure: 29.92"   Gusts: NA
Location:  51.51°N, 1.53°W
Report Text: EGVA 211758Z AUTO 10008KT 6000 R27/1400 -RA BR OVC007 07/07 A2992 RMK AO2 SLP138 P0000 60000 T00740071 10074 20069 58008 $
Loading
Personal Weather Stations






























Interactive Weather Map New forecast layout! Learn more

10-Day Weather Forecast

Advertisements
Track Severe Weather on mobile